createdAt,value
2022-12-23T00:03:39.981Z,94.63
2022-12-23T00:14:21.781Z,95.15
2022-12-23T00:24:43.455Z,95.42
2022-12-23T00:35:04.981Z,95.09
2022-12-23T00:45:26.572Z,95.54
2022-12-23T00:55:48.722Z,95.75
2022-12-23T01:06:10.151Z,95.69
2022-12-23T01:16:31.628Z,95.47
2022-12-23T01:26:53.072Z,95.53
2022-12-23T01:37:14.436Z,95.77
2022-12-23T01:47:38.804Z,96.02
2022-12-23T01:58:08.027Z,95.81
2022-12-23T02:08:48.270Z,95.44
2022-12-23T02:19:31.722Z,95.17
2022-12-23T02:30:08.075Z,95.04
2022-12-23T02:40:29.395Z,95.09
2022-12-23T02:50:52.495Z,95.03
2022-12-23T03:01:15.260Z,95.31
2022-12-23T03:11:44.910Z,94.80
2022-12-23T03:22:25.973Z,95.01
2022-12-23T03:32:49.320Z,94.75
2022-12-23T03:43:13.908Z,94.97
2022-12-23T03:53:38.568Z,95.10
2022-12-23T04:04:09.181Z,95.24
2022-12-23T04:14:31.730Z,94.75
2022-12-23T04:24:53.082Z,95.51
2022-12-23T04:35:14.496Z,95.54
2022-12-23T04:45:35.850Z,95.42
2022-12-23T04:55:57.222Z,95.61
2022-12-23T05:06:18.587Z,95.15
2022-12-23T05:16:40.103Z,94.82
2022-12-23T05:27:01.494Z,95.56
2022-12-23T05:37:22.852Z,95.24
2022-12-23T05:47:44.254Z,95.49
2022-12-23T05:58:05.811Z,95.18
2022-12-23T06:08:27.184Z,96.04
2022-12-23T06:18:48.559Z,96.31
2022-12-23T06:29:10.542Z,97.06
2022-12-23T06:39:31.991Z,96.90
2022-12-23T06:49:53.434Z,96.84
2022-12-23T07:00:15.190Z,96.62
2022-12-23T07:10:36.611Z,97.62
2022-12-23T07:20:59.774Z,97.55
2022-12-23T07:31:21.410Z,97.37
2022-12-23T07:41:42.889Z,96.91
2022-12-23T07:52:04.373Z,96.97
2022-12-23T08:02:26.010Z,97.05
2022-12-23T08:12:47.574Z,97.89
2022-12-23T08:23:08.935Z,97.43
2022-12-23T08:33:30.445Z,97.11
2022-12-23T08:43:51.981Z,96.98
2022-12-23T08:54:13.354Z,96.80
2022-12-23T09:04:36.032Z,96.79
2022-12-23T09:14:57.424Z,96.91
2022-12-23T09:25:18.822Z,95.86
2022-12-23T09:35:40.232Z,96.15
2022-12-23T09:46:20.491Z,95.93
2022-12-23T09:56:41.915Z,96.04
2022-12-23T10:07:06.380Z,96.22
2022-12-23T10:17:35.036Z,96.21
2022-12-23T10:27:56.420Z,96.68
2022-12-23T10:38:23.866Z,96.82
2022-12-23T10:49:08.738Z,96.50
2022-12-23T10:59:35.442Z,96.58
2022-12-23T11:10:01.195Z,96.48
2022-12-23T11:20:22.592Z,96.18
2022-12-23T11:30:55.398Z,95.77
2022-12-23T11:41:22.321Z,95.46
2022-12-23T11:51:44.549Z,95.22
2022-12-23T12:02:14.745Z,94.90
2022-12-23T12:12:36.230Z,95.16
2022-12-23T12:23:08.926Z,94.66
2022-12-23T12:33:34.393Z,95.23
2022-12-23T12:44:00.458Z,94.24
2022-12-23T12:54:40.096Z,94.72
2022-12-23T13:05:07.574Z,95.40
2022-12-23T13:15:38.055Z,95.24
2022-12-23T13:26:05.153Z,95.50
2022-12-23T13:36:26.663Z,95.61
2022-12-23T13:47:00.469Z,95.83
2022-12-23T13:57:36.502Z,95.97
2022-12-23T14:08:03.464Z,95.51
2022-12-23T14:18:40.268Z,95.46
2022-12-23T14:29:21.788Z,95.75
2022-12-23T14:39:43.422Z,95.61
2022-12-23T14:50:23.735Z,95.01
2022-12-23T15:00:56.454Z,95.27
2022-12-23T15:11:22.780Z,95.17
2022-12-23T15:21:47.513Z,95.22
2022-12-23T15:32:11.859Z,95.42
2022-12-23T15:42:35.433Z,95.53
2022-12-23T15:53:01.821Z,95.67
2022-12-23T16:03:34.081Z,95.64
2022-12-23T16:14:00.576Z,96.08
2022-12-23T16:24:22.106Z,96.31
2022-12-23T16:34:45.394Z,96.79
2022-12-23T16:45:07.073Z,96.99
2022-12-23T16:55:28.427Z,97.27
2022-12-23T17:05:49.839Z,97.36
2022-12-23T17:16:21.892Z,97.37
2022-12-23T17:26:43.272Z,97.15
2022-12-23T17:37:12.513Z,97.27
2022-12-23T17:47:33.921Z,97.26
2022-12-23T17:57:55.338Z,97.34
2022-12-23T18:08:16.956Z,96.90
2022-12-23T18:18:46.145Z,96.95
2022-12-23T18:29:08.393Z,96.99
2022-12-23T18:39:29.750Z,96.81
2022-12-23T18:49:51.107Z,96.74
2022-12-23T19:00:23.027Z,96.97
2022-12-23T19:10:45.714Z,97.01
2022-12-23T19:21:07.235Z,96.86
2022-12-23T19:31:29.912Z,96.66
2022-12-23T19:41:51.374Z,97.07
2022-12-23T19:52:12.791Z,96.86
2022-12-23T20:02:34.215Z,96.85
2022-12-23T20:12:55.603Z,96.84
2022-12-23T20:23:17.056Z,96.24
2022-12-23T20:33:39.011Z,96.66
2022-12-23T20:44:33.388Z,96.77
2022-12-23T20:54:41.844Z,96.73
2022-12-23T21:05:03.321Z,96.63
2022-12-23T21:15:24.746Z,96.38
2022-12-23T21:25:46.112Z,96.70
2022-12-23T21:36:07.996Z,97.03
2022-12-23T21:46:29.887Z,96.47
2022-12-23T21:56:51.330Z,96.67
2022-12-23T22:07:12.846Z,96.49
2022-12-23T22:17:34.330Z,96.88
2022-12-23T22:27:57.462Z,96.77
2022-12-23T22:38:18.848Z,96.53
2022-12-23T22:48:40.261Z,96.81
2022-12-23T22:59:01.670Z,96.67
2022-12-23T23:09:23.080Z,96.94
2022-12-23T23:19:44.519Z,97.28
2022-12-23T23:30:06.403Z,97.03
2022-12-23T23:40:28.033Z,97.79
2022-12-23T23:50:49.464Z,97.17
